createdAt,value
2023-02-22T00:01:24.931Z,16.73
2023-02-22T00:03:51.959Z,14.20
2023-02-22T00:06:21.925Z,14.75
2023-02-22T00:08:49.882Z,15.45
2023-02-22T00:11:16.955Z,15.32
2023-02-22T00:13:44.191Z,14.85
2023-02-22T00:16:14.986Z,14.43
2023-02-22T00:18:41.845Z,15.20
2023-02-22T00:21:08.412Z,13.40
2023-02-22T00:23:35.093Z,13.00
2023-02-22T00:26:03.197Z,13.68
2023-02-22T00:28:29.967Z,14.23
2023-02-22T00:30:56.508Z,14.07
2023-02-22T00:33:23.490Z,12.77
2023-02-22T00:35:50.322Z,13.48
2023-02-22T00:38:19.258Z,13.07
2023-02-22T00:40:46.187Z,12.32
2023-02-22T00:43:14.919Z,13.48
2023-02-22T00:45:42.336Z,13.85
2023-02-22T00:48:10.240Z,12.70
2023-02-22T00:50:37.310Z,12.25
2023-02-22T00:53:05.854Z,13.10
2023-02-22T00:55:35.107Z,11.88
2023-02-22T00:58:02.215Z,12.15
2023-02-22T01:00:31.981Z,11.88
2023-02-22T01:02:59.013Z,12.70
2023-02-22T01:05:27.350Z,12.05
2023-02-22T01:07:55.170Z,12.40
2023-02-22T01:10:24.575Z,12.38
2023-02-22T01:12:51.453Z,12.18
2023-02-22T01:15:20.778Z,11.70
2023-02-22T01:17:50.730Z,11.52
2023-02-22T01:20:18.198Z,12.25
2023-02-22T01:22:46.992Z,11.98
2023-02-22T01:25:17.939Z,11.13
2023-02-22T01:27:44.871Z,12.10
2023-02-22T01:30:13.488Z,11.40
2023-02-22T01:32:41.858Z,12.23
2023-02-22T01:35:12.141Z,11.25
2023-02-22T01:37:38.683Z,11.57
2023-02-22T01:40:07.467Z,10.95
2023-02-22T01:42:34.191Z,10.65
2023-02-22T01:45:42.199Z,11.07
2023-02-22T01:48:12.956Z,11.52
2023-02-22T01:50:44.162Z,10.25
2023-02-22T01:53:16.583Z,11.10
2023-02-22T01:55:46.134Z,12.30
2023-02-22T01:58:15.366Z,11.38
2023-02-22T02:00:42.748Z,11.93
2023-02-22T02:03:14.921Z,11.05
2023-02-22T02:05:44.143Z,10.57
2023-02-22T02:08:21.584Z,10.90
2023-02-22T02:10:49.423Z,10.07
2023-02-22T02:13:16.466Z,10.77
2023-02-22T02:15:43.151Z,10.13
2023-02-22T02:18:12.093Z,10.52
2023-02-22T02:20:51.133Z,11.23
2023-02-22T02:23:38.717Z,11.20
2023-02-22T02:26:26.032Z,10.63
2023-02-22T02:29:25.317Z,10.00
2023-02-22T02:32:28.334Z,10.52
2023-02-22T02:35:01.639Z,10.20
2023-02-22T02:37:37.091Z,10.88
2023-02-22T02:40:17.865Z,10.48
2023-02-22T02:42:53.803Z,9.60
2023-02-22T02:45:27.372Z,10.02
2023-02-22T02:47:58.503Z,10.15
2023-02-22T02:50:29.320Z,9.65
2023-02-22T02:53:00.960Z,9.70
2023-02-22T02:55:28.976Z,11.63
2023-02-22T02:57:55.930Z,9.90
2023-02-22T03:00:28.732Z,9.50
2023-02-22T03:03:09.716Z,10.23
2023-02-22T03:06:01.840Z,10.07
2023-02-22T03:08:34.511Z,10.15
2023-02-22T03:11:07.997Z,10.02
2023-02-22T03:13:40.196Z,9.80
2023-02-22T03:16:19.608Z,9.07
2023-02-22T03:18:59.590Z,9.45
2023-02-22T03:21:34.323Z,9.85
2023-02-22T03:24:08.344Z,9.80
2023-02-22T03:26:39.698Z,10.52
2023-02-22T03:29:10.362Z,8.75
2023-02-22T03:31:42.605Z,9.57
2023-02-22T03:34:15.142Z,9.70
2023-02-22T03:36:48.200Z,9.15
2023-02-22T03:39:18.468Z,10.15
2023-02-22T03:41:49.450Z,8.40
2023-02-22T03:44:20.642Z,8.80
2023-02-22T03:46:50.437Z,8.87
2023-02-22T03:49:27.475Z,8.63
2023-02-22T03:51:54.625Z,8.75
2023-02-22T03:54:24.053Z,9.93
2023-02-22T03:56:55.717Z,9.55
2023-02-22T03:59:24.450Z,8.65
2023-02-22T04:01:51.690Z,9.95
2023-02-22T04:04:20.055Z,8.63
2023-02-22T04:06:48.092Z,9.25
2023-02-22T04:09:16.013Z,8.75
2023-02-22T04:11:43.012Z,9.40
2023-02-22T04:14:11.151Z,8.73
2023-02-22T04:16:37.682Z,8.00
2023-02-22T04:19:07.774Z,9.27
2023-02-22T04:21:38.779Z,9.18
2023-02-22T04:24:08.869Z,8.70
2023-02-22T04:26:35.821Z,7.47
2023-02-22T04:29:04.142Z,7.55
2023-02-22T04:31:36.589Z,8.27
2023-02-22T04:34:04.015Z,8.88
2023-02-22T04:36:34.527Z,7.63
2023-02-22T04:39:02.579Z,7.25
2023-02-22T04:41:30.544Z,7.65
2023-02-22T04:43:57.859Z,7.57
2023-02-22T04:46:26.275Z,7.60
2023-02-22T04:48:53.883Z,9.30
2023-02-22T04:51:23.624Z,9.20
2023-02-22T04:53:57.839Z,8.10
2023-02-22T04:56:26.378Z,6.75
2023-02-22T04:58:53.013Z,7.40
2023-02-22T05:01:19.779Z,7.68
2023-02-22T05:03:47.246Z,7.32
2023-02-22T05:06:14.580Z,6.70
2023-02-22T05:08:41.373Z,7.18
2023-02-22T05:11:08.021Z,6.65
2023-02-22T05:13:36.006Z,7.82
2023-02-22T05:16:03.010Z,7.70
2023-02-22T05:18:29.589Z,7.75
2023-02-22T05:20:57.041Z,7.05
2023-02-22T05:23:23.598Z,8.02
2023-02-22T05:25:50.319Z,7.10
2023-02-22T05:28:19.595Z,7.45
2023-02-22T05:30:48.015Z,6.90
2023-02-22T05:33:14.554Z,8.20
2023-02-22T05:35:41.727Z,7.65
2023-02-22T05:38:09.736Z,7.47
2023-02-22T05:40:36.595Z,7.10
2023-02-22T05:43:03.547Z,6.53
2023-02-22T05:45:30.364Z,7.13
2023-02-22T05:47:58.421Z,7.55
2023-02-22T05:50:25.404Z,7.15
2023-02-22T05:52:53.043Z,7.40
2023-02-22T05:55:21.800Z,6.68
2023-02-22T05:57:49.224Z,7.85
2023-02-22T06:00:21.800Z,7.57
2023-02-22T06:02:54.096Z,6.95
2023-02-22T06:05:22.048Z,6.90
2023-02-22T06:07:48.896Z,7.18
2023-02-22T06:10:15.787Z,6.35
2023-02-22T06:12:42.637Z,6.13
2023-02-22T06:15:10.449Z,7.78
2023-02-22T06:17:37.138Z,7.05
2023-02-22T06:20:04.186Z,7.03
2023-02-22T06:22:32.029Z,7.18
2023-02-22T06:24:58.575Z,7.82
2023-02-22T06:27:25.098Z,6.82
2023-02-22T06:29:51.675Z,6.55
2023-02-22T06:32:18.468Z,6.65
2023-02-22T06:34:45.192Z,6.88
2023-02-22T06:37:13.195Z,7.75
2023-02-22T06:39:41.200Z,7.53
2023-02-22T06:42:07.899Z,7.93
2023-02-22T06:44:34.624Z,7.10
2023-02-22T06:47:01.236Z,7.03
2023-02-22T06:49:28.032Z,5.82
2023-02-22T06:51:55.073Z,6.47
2023-02-22T06:54:22.783Z,7.13
2023-02-22T06:56:50.893Z,7.88
2023-02-22T06:59:18.815Z,7.43
2023-02-22T07:01:45.459Z,7.10
2023-02-22T07:04:12.031Z,7.05
2023-02-22T07:06:38.597Z,7.20
2023-02-22T07:09:05.173Z,7.13
2023-02-22T07:11:31.881Z,7.25
2023-02-22T07:13:59.764Z,7.20
2023-02-22T07:16:26.343Z,6.50
2023-02-22T07:18:52.884Z,6.80
2023-02-22T07:21:19.528Z,5.82
2023-02-22T07:23:51.328Z,7.13
2023-02-22T07:26:18.025Z,7.03
2023-02-22T07:28:44.539Z,6.30
2023-02-22T07:31:12.603Z,6.75
2023-02-22T07:33:39.301Z,7.28
2023-02-22T07:36:06.615Z,7.43
2023-02-22T07:38:33.188Z,6.95
2023-02-22T07:40:59.990Z,7.95
2023-02-22T07:43:28.112Z,7.80
2023-02-22T07:45:57.792Z,7.60
2023-02-22T07:48:28.130Z,7.38
2023-02-22T07:50:54.796Z,7.72
2023-02-22T07:53:28.728Z,8.02
2023-02-22T07:55:56.724Z,8.50
2023-02-22T07:58:26.181Z,7.70
2023-02-22T08:00:53.858Z,7.82
2023-02-22T08:03:22.770Z,7.82
2023-02-22T08:05:53.776Z,8.52
2023-02-22T08:08:20.897Z,9.05
2023-02-22T08:10:48.625Z,8.07
2023-02-22T08:13:15.800Z,8.85
2023-02-22T08:15:42.805Z,8.45
2023-02-22T08:18:15.780Z,7.60
2023-02-22T08:20:44.996Z,8.18
2023-02-22T08:23:14.520Z,8.32
2023-02-22T08:25:41.332Z,7.32
2023-02-22T08:28:10.465Z,7.60
2023-02-22T08:30:40.572Z,8.88
2023-02-22T08:33:10.540Z,8.00
2023-02-22T08:35:37.098Z,8.52
2023-02-22T08:38:05.917Z,8.50
2023-02-22T08:40:35.391Z,8.30
2023-02-22T08:43:02.795Z,8.60
2023-02-22T08:45:29.981Z,8.25
2023-02-22T08:47:57.473Z,8.15
2023-02-22T08:50:26.705Z,8.10
2023-02-22T08:52:54.520Z,8.18
2023-02-22T08:55:21.767Z,8.43
2023-02-22T08:57:49.743Z,9.00
2023-02-22T09:00:17.448Z,8.80
2023-02-22T09:02:44.384Z,9.55
2023-02-22T09:05:11.343Z,9.40
2023-02-22T09:07:40.961Z,8.95
2023-02-22T09:10:08.225Z,8.15
2023-02-22T09:12:35.140Z,8.45
2023-02-22T09:15:03.510Z,9.23
2023-02-22T09:17:30.142Z,8.52
2023-02-22T09:19:56.969Z,8.73
2023-02-22T09:22:23.518Z,9.40
2023-02-22T09:24:52.235Z,8.70
2023-02-22T09:27:18.789Z,9.50
2023-02-22T09:29:48.433Z,8.68
2023-02-22T09:32:16.443Z,8.60
2023-02-22T09:34:43.333Z,9.20
2023-02-22T09:37:09.878Z,9.40
2023-02-22T09:39:36.441Z,10.02
2023-02-22T09:42:11.724Z,9.68
2023-02-22T09:44:43.949Z,9.25
2023-02-22T09:47:15.388Z,8.85
2023-02-22T09:49:51.946Z,10.52
2023-02-22T09:52:24.289Z,9.80
2023-02-22T09:54:55.285Z,9.50
2023-02-22T09:57:28.746Z,10.27
2023-02-22T10:00:01.676Z,9.95
2023-02-22T10:02:44.057Z,10.65
2023-02-22T10:05:17.444Z,10.65
2023-02-22T10:07:47.586Z,10.57
2023-02-22T10:10:17.176Z,10.55
2023-02-22T10:12:50.728Z,10.32
2023-02-22T10:15:42.753Z,10.52
2023-02-22T10:18:31.871Z,10.65
2023-02-22T10:21:06.920Z,10.07
2023-02-22T10:23:42.218Z,9.82
2023-02-22T10:26:16.716Z,10.48
2023-02-22T10:28:52.069Z,10.15
2023-02-22T10:31:23.444Z,9.35
2023-02-22T10:33:55.335Z,9.95
2023-02-22T10:38:55.074Z,10.68
2023-02-22T10:41:28.353Z,10.75
2023-02-22T10:43:55.707Z,11.40
2023-02-22T10:46:23.828Z,9.95
2023-02-22T10:48:53.971Z,10.00
2023-02-22T10:51:21.192Z,10.13
2023-02-22T10:54:18.612Z,10.45
2023-02-22T10:56:48.350Z,10.40
2023-02-22T10:59:27.488Z,9.95
2023-02-22T11:01:54.326Z,10.43
2023-02-22T11:04:22.321Z,10.20
2023-02-22T11:07:06.459Z,9.63
2023-02-22T11:09:46.076Z,9.57
2023-02-22T11:12:19.255Z,9.13
2023-02-22T11:14:45.889Z,9.65
2023-02-22T11:17:18.117Z,8.80
2023-02-22T11:19:50.088Z,9.27
2023-02-22T11:22:23.012Z,8.95
2023-02-22T11:27:28.216Z,8.48
2023-02-22T11:29:56.521Z,8.35
2023-02-22T11:32:23.067Z,7.93
2023-02-22T11:34:52.830Z,7.90
2023-02-22T11:40:15.695Z,6.90
2023-02-22T11:42:42.323Z,7.40
2023-02-22T11:45:11.605Z,6.82
2023-02-22T11:47:56.401Z,6.70
2023-02-22T11:50:28.734Z,7.22
2023-02-22T11:53:11.799Z,6.70
2023-02-22T11:55:46.727Z,7.15
2023-02-22T11:58:30.024Z,6.78
2023-02-22T12:01:04.086Z,7.35
2023-02-22T12:03:50.081Z,6.35
2023-02-22T12:06:28.855Z,6.28
2023-02-22T12:09:11.530Z,6.35
2023-02-22T12:11:49.780Z,6.10
2023-02-22T12:14:26.071Z,5.85
2023-02-22T12:17:21.196Z,6.35
2023-02-22T12:19:51.460Z,6.10
2023-02-22T12:22:24.013Z,6.60
2023-02-22T12:25:08.565Z,6.45
2023-02-22T12:27:43.612Z,7.25
2023-02-22T12:30:15.087Z,6.00
2023-02-22T12:32:45.922Z,6.25
2023-02-22T12:35:18.821Z,6.20
2023-02-22T12:37:54.538Z,5.88
2023-02-22T12:40:27.084Z,5.82
2023-02-22T12:43:00.468Z,6.10
2023-02-22T12:45:34.148Z,5.78
2023-02-22T12:48:20.055Z,5.82
2023-02-22T12:50:49.044Z,6.38
2023-02-22T12:53:21.877Z,6.95
2023-02-22T12:55:56.542Z,6.75
2023-02-22T12:58:29.887Z,6.22
2023-02-22T13:01:01.634Z,7.05
2023-02-22T13:06:11.606Z,6.70
2023-02-22T13:08:45.604Z,6.18
2023-02-22T13:11:22.076Z,6.72
2023-02-22T13:14:05.659Z,6.68
2023-02-22T13:16:41.231Z,6.90
2023-02-22T13:19:21.672Z,6.80
2023-02-22T13:21:55.569Z,7.50
2023-02-22T13:24:26.263Z,6.88
2023-02-22T13:26:59.569Z,7.45
2023-02-22T13:29:31.750Z,7.47
2023-02-22T13:32:24.642Z,8.25
2023-02-22T13:35:02.737Z,7.35
2023-02-22T13:37:44.282Z,7.13
2023-02-22T13:40:25.254Z,7.70
2023-02-22T13:43:21.476Z,7.63
2023-02-22T13:46:03.879Z,7.90
2023-02-22T13:49:12.764Z,7.60
2023-02-22T13:51:48.685Z,8.90
2023-02-22T13:54:24.447Z,8.30
2023-02-22T13:56:53.847Z,7.65
2023-02-22T13:59:27.114Z,7.43
2023-02-22T14:01:55.978Z,8.05
2023-02-22T14:04:39.560Z,7.63
2023-02-22T14:07:56.456Z,8.35
2023-02-22T14:10:53.454Z,7.70
2023-02-22T14:13:21.376Z,8.32
2023-02-22T14:16:17.355Z,7.82
2023-02-22T14:18:48.284Z,7.60
2023-02-22T14:21:16.546Z,7.47
2023-02-22T14:23:44.135Z,7.60
2023-02-22T14:26:13.901Z,7.90
2023-02-22T14:28:47.746Z,7.97
2023-02-22T14:31:33.437Z,7.68
2023-02-22T14:34:07.013Z,7.55
2023-02-22T14:36:38.653Z,8.43
2023-02-22T14:41:46.613Z,6.88
2023-02-22T14:44:15.622Z,7.10
2023-02-22T14:46:46.137Z,7.53
2023-02-22T14:49:19.706Z,8.82
2023-02-22T14:51:51.740Z,7.38
2023-02-22T14:54:26.478Z,7.97
2023-02-22T14:57:00.411Z,8.75
2023-02-22T14:59:28.325Z,8.70
2023-02-22T15:02:11.357Z,7.63
2023-02-22T15:04:39.839Z,8.05
2023-02-22T15:07:09.886Z,7.60
2023-02-22T15:09:36.750Z,7.22
2023-02-22T15:12:12.239Z,8.52
2023-02-22T15:14:40.540Z,8.13
2023-02-22T15:17:12.338Z,7.38
2023-02-22T15:19:41.961Z,8.07
2023-02-22T15:22:20.800Z,7.13
2023-02-22T15:24:57.918Z,7.15
2023-02-22T15:27:24.870Z,7.07
2023-02-22T15:29:58.238Z,7.20
2023-02-22T15:32:30.717Z,7.32
2023-02-22T15:35:12.959Z,7.50
2023-02-22T15:37:40.642Z,6.82
2023-02-22T15:40:08.954Z,7.35
2023-02-22T15:42:44.065Z,7.38
2023-02-22T15:45:17.214Z,6.82
2023-02-22T15:47:45.294Z,7.35
2023-02-22T15:50:25.147Z,6.95
2023-02-22T15:53:00.527Z,7.37
2023-02-22T15:55:33.040Z,7.78
2023-02-22T15:58:07.959Z,6.93
2023-02-22T16:00:43.242Z,6.93
2023-02-22T16:03:15.183Z,7.68
2023-02-22T16:05:51.827Z,7.28
2023-02-22T16:08:24.061Z,6.90
2023-02-22T16:10:59.152Z,6.78
2023-02-22T16:13:35.859Z,7.47
2023-02-22T16:16:06.071Z,7.20
2023-02-22T16:18:39.294Z,6.40
2023-02-22T16:21:11.338Z,6.45
2023-02-22T16:23:51.571Z,6.38
2023-02-22T16:26:28.216Z,5.95
2023-02-22T16:28:58.275Z,5.90
2023-02-22T16:31:27.896Z,6.75
2023-02-22T16:33:59.563Z,5.90
2023-02-22T16:36:43.704Z,7.35
2023-02-22T16:39:18.534Z,6.97
2023-02-22T16:41:47.938Z,7.05
2023-02-22T16:44:15.653Z,6.75
2023-02-22T16:46:43.638Z,7.18
2023-02-22T16:49:15.148Z,7.07
2023-02-22T16:54:23.381Z,6.05
2023-02-22T16:56:56.948Z,6.35
2023-02-22T16:59:28.485Z,5.85
2023-02-22T17:01:56.761Z,6.45
2023-02-22T17:04:24.539Z,7.13
2023-02-22T17:06:55.461Z,6.85
2023-02-22T17:09:22.746Z,6.05
2023-02-22T17:11:54.316Z,7.10
2023-02-22T17:16:51.728Z,6.65
2023-02-22T17:19:23.213Z,7.00
2023-02-22T17:21:56.041Z,7.55
2023-02-22T17:24:25.376Z,8.07
2023-02-22T17:26:53.114Z,11.95
2023-02-22T17:29:25.721Z,12.18
2023-02-22T17:31:53.640Z,9.93
2023-02-22T17:34:21.774Z,8.88
2023-02-22T17:36:51.665Z,9.70
2023-02-22T17:39:21.204Z,9.45
2023-02-22T17:41:50.073Z,9.18
2023-02-22T17:44:17.946Z,9.27
2023-02-22T17:46:47.274Z,6.40
2023-02-22T17:49:15.554Z,6.10
2023-02-22T17:51:45.363Z,6.30
2023-02-22T17:54:12.516Z,6.45
2023-02-22T17:56:43.672Z,7.18
2023-02-22T17:59:10.884Z,7.53
2023-02-22T18:01:38.766Z,7.60
2023-02-22T18:04:06.393Z,7.75
2023-02-22T18:06:36.705Z,8.10
2023-02-22T18:09:07.636Z,8.00
2023-02-22T18:11:40.938Z,7.80
2023-02-22T18:14:15.345Z,6.60
2023-02-22T18:16:43.452Z,5.65
2023-02-22T18:19:11.878Z,5.50
2023-02-22T18:21:42.422Z,6.15
2023-02-22T18:24:12.748Z,6.95
2023-02-22T18:26:44.399Z,9.47
2023-02-22T18:29:13.051Z,9.60
2023-02-22T18:31:40.619Z,8.45
2023-02-22T18:34:09.316Z,7.00
2023-02-22T18:36:39.851Z,7.28
2023-02-22T18:39:07.296Z,7.18
2023-02-22T18:41:34.852Z,7.20
2023-02-22T18:44:05.695Z,8.65
2023-02-22T18:46:35.855Z,8.40
2023-02-22T18:49:06.841Z,7.10
2023-02-22T18:51:36.859Z,8.82
2023-02-22T18:54:04.038Z,6.80
2023-02-22T18:56:31.742Z,5.93
2023-02-22T18:59:01.870Z,6.38
2023-02-22T19:01:32.495Z,5.60
2023-02-22T19:04:00.826Z,4.93
2023-02-22T19:06:27.419Z,4.85
2023-02-22T19:08:53.960Z,4.97
2023-02-22T19:11:22.319Z,4.93
2023-02-22T19:13:50.804Z,4.95
2023-02-22T19:16:20.937Z,6.15
2023-02-22T19:18:49.214Z,5.72
2023-02-22T19:21:17.592Z,4.93
2023-02-22T19:23:44.827Z,6.15
2023-02-22T19:26:12.300Z,7.57
2023-02-22T19:28:39.063Z,7.65
2023-02-22T19:31:13.596Z,8.30
2023-02-22T19:33:40.337Z,6.28
2023-02-22T19:36:08.010Z,6.63
2023-02-22T19:38:35.936Z,6.78
2023-02-22T19:41:10.029Z,6.60
2023-02-22T19:43:36.973Z,6.90
2023-02-22T19:46:04.777Z,6.68
2023-02-22T19:48:31.379Z,5.50
2023-02-22T19:51:02.381Z,5.30
2023-02-22T19:53:29.599Z,6.10
2023-02-22T19:55:57.634Z,6.38
2023-02-22T19:58:24.189Z,6.60
2023-02-22T20:00:50.686Z,6.80
2023-02-22T20:03:17.348Z,6.53
2023-02-22T20:05:43.883Z,6.07
2023-02-22T20:08:10.523Z,5.40
2023-02-22T20:10:37.078Z,7.28
2023-02-22T20:13:05.034Z,4.80
2023-02-22T20:15:33.199Z,5.18
2023-02-22T20:17:59.818Z,4.20
2023-02-22T20:20:26.464Z,4.40
2023-02-22T20:22:53.959Z,4.43
2023-02-22T20:25:20.601Z,4.30
2023-02-22T20:27:47.216Z,4.30
2023-02-22T20:30:15.282Z,4.25
2023-02-22T20:32:42.113Z,4.53
2023-02-22T20:35:08.870Z,5.45
2023-02-22T20:37:35.680Z,4.93
2023-02-22T20:40:04.167Z,5.68
2023-02-22T20:42:31.854Z,4.97
2023-02-22T20:44:58.651Z,5.72
2023-02-22T20:47:26.657Z,5.68
2023-02-22T20:49:53.178Z,4.82
2023-02-22T20:52:19.794Z,5.53
2023-02-22T20:54:46.321Z,4.72
2023-02-22T20:57:12.987Z,6.03
2023-02-22T20:59:39.509Z,8.82
2023-02-22T21:02:06.593Z,6.53
2023-02-22T21:04:34.576Z,6.82
2023-02-22T21:07:01.173Z,7.18
2023-02-22T21:09:28.584Z,8.00
2023-02-22T21:11:55.337Z,6.20
2023-02-22T21:14:21.884Z,5.03
2023-02-22T21:16:50.186Z,4.60
2023-02-22T21:19:18.029Z,4.93
2023-02-22T21:21:46.004Z,5.80
2023-02-22T21:24:12.551Z,5.05
2023-02-22T21:26:39.569Z,5.38
2023-02-22T21:29:06.551Z,5.10
2023-02-22T21:31:36.335Z,6.38
2023-02-22T21:34:02.990Z,6.13
2023-02-22T21:36:29.868Z,6.38
2023-02-22T21:38:59.286Z,6.95
2023-02-22T21:41:28.256Z,6.03
2023-02-22T21:43:55.975Z,6.43
2023-02-22T21:46:23.182Z,6.72
2023-02-22T21:48:50.016Z,7.40
2023-02-22T21:51:19.974Z,5.82
2023-02-22T21:53:47.867Z,5.93
2023-02-22T21:56:17.399Z,6.05
2023-02-22T21:58:44.341Z,4.78
2023-02-22T22:01:12.095Z,4.65
2023-02-22T22:03:38.669Z,5.07
2023-02-22T22:06:06.685Z,5.38
2023-02-22T22:08:33.282Z,4.95
2023-02-22T22:10:59.811Z,5.55
2023-02-22T22:13:27.743Z,5.45
2023-02-22T22:15:54.527Z,5.78
2023-02-22T22:18:21.334Z,4.95
2023-02-22T22:20:47.882Z,5.60
2023-02-22T22:23:14.436Z,5.50
2023-02-22T22:25:40.993Z,5.10
2023-02-22T22:28:08.152Z,6.93
2023-02-22T22:30:37.380Z,5.50
2023-02-22T22:33:04.863Z,6.45
2023-02-22T22:35:32.045Z,5.28
2023-02-22T22:37:58.759Z,5.95
2023-02-22T22:40:25.331Z,5.78
2023-02-22T22:42:51.911Z,5.22
2023-02-22T22:45:19.067Z,5.53
2023-02-22T22:47:46.919Z,5.07
2023-02-22T22:50:14.337Z,5.00
2023-02-22T22:52:41.354Z,5.57
2023-02-22T22:55:08.463Z,6.07
2023-02-22T22:57:35.002Z,5.72
2023-02-22T23:00:01.999Z,6.07
2023-02-22T23:02:28.811Z,4.88
2023-02-22T23:04:56.693Z,5.70
2023-02-22T23:07:23.232Z,5.68
2023-02-22T23:09:49.735Z,5.45
2023-02-22T23:12:16.260Z,5.13
2023-02-22T23:14:44.556Z,6.40
2023-02-22T23:17:12.413Z,6.43
2023-02-22T23:19:38.998Z,6.65
2023-02-22T23:22:07.108Z,7.93
2023-02-22T23:24:35.114Z,6.63
2023-02-22T23:27:02.506Z,5.97
2023-02-22T23:29:29.193Z,6.68
2023-02-22T23:31:55.934Z,6.80
2023-02-22T23:34:23.183Z,6.85
2023-02-22T23:36:50.208Z,6.85
2023-02-22T23:39:19.443Z,6.57
2023-02-22T23:41:49.064Z,8.07
2023-02-22T23:44:15.649Z,7.55
2023-02-22T23:46:42.212Z,6.47
2023-02-22T23:49:08.753Z,6.85
2023-02-22T23:51:36.527Z,6.50
2023-02-22T23:54:03.165Z,6.57
2023-02-22T23:56:31.035Z,7.15
2023-02-22T23:58:57.752Z,6.65
